Time;durP1;ratioP1;P1;durP2;ratioP2;P2;SDS_P1;SDS_P2;PMS_P1;PMS_P2;Temp;Humidity;BMP_temperature;BMP_pressure;BME280_temperature;BME280_humidity;BME280_pressure;Samples;Min_cycle;Max_cycle;Signal;HPM_P1;HPM_P2
2022/03/31 00:00:18;;;;;;;24.20;20.13;;;14.90;66.20;;;;;;4994830;28;20514;-62
2022/03/31 00:02:44;;;;;;;24.25;21.00;;;14.90;66.50;;;;;;4995022;28;20026;-62
2022/03/31 00:05:11;;;;;;;25.15;21.35;;;14.80;67.00;;;;;;4995393;28;20437;-63
2022/03/31 00:07:47;;;;;;;26.55;21.13;;;14.80;67.40;;;;;;4994918;28;20023;-63
2022/03/31 00:10:13;;;;;;;25.80;21.42;;;14.70;67.60;;;;;;4994926;28;20034;-62
2022/03/31 00:12:39;;;;;;;25.70;20.33;;;14.70;67.60;;;;;;4994982;28;20538;-63
2022/03/31 00:15:05;;;;;;;26.23;19.80;;;14.70;67.70;;;;;;4994648;28;20117;-62
2022/03/31 00:17:30;;;;;;;23.30;18.25;;;14.70;67.60;;;;;;4994833;28;20061;-62
2022/03/31 00:19:56;;;;;;;22.95;18.27;;;14.60;67.50;;;;;;4994916;28;20035;-62
2022/03/31 00:22:21;;;;;;;21.50;17.70;;;14.70;67.50;;;;;;4994464;28;20042;-62
2022/03/31 00:24:47;;;;;;;21.02;16.55;;;14.70;67.30;;;;;;4994713;28;20021;-63
2022/03/31 00:27:12;;;;;;;17.02;15.13;;;14.70;66.80;;;;;;4977067;28;20041;-62
2022/03/31 00:29:38;;;;;;;19.08;14.50;;;14.60;66.70;;;;;;4994270;28;20054;-62
2022/03/31 00:32:04;;;;;;;18.48;13.32;;;14.60;66.60;;;;;;4994315;28;20023;-63
2022/03/31 00:34:30;;;;;;;17.58;13.43;;;14.50;66.40;;;;;;4994447;28;20041;-61
2022/03/31 00:36:56;;;;;;;12.57;11.18;;;14.60;66.30;;;;;;4994273;28;20492;-63
2022/03/31 00:39:34;;;;;;;13.43;11.60;;;14.70;65.90;;;;;;4993963;28;20057;-60
2022/03/31 00:42:02;;;;;;;13.25;10.48;;;14.80;65.70;;;;;;4994225;28;20032;-62
2022/03/31 00:44:28;;;;;;;9.70;8.70;;;14.80;65.20;;;;;;4993986;28;20034;-62
2022/03/31 00:46:55;;;;;;;9.73;8.40;;;14.80;64.70;;;;;;4994294;28;20080;-63
2022/03/31 00:49:22;;;;;;;7.82;6.75;;;14.70;64.40;;;;;;4994159;28;20030;-62
2022/03/31 00:51:50;;;;;;;7.30;6.00;;;14.70;64.20;;;;;;4994186;28;20049;-61
2022/03/31 00:54:17;;;;;;;7.07;6.07;;;14.70;63.80;;;;;;4993978;28;20054;-63
2022/03/31 00:56:43;;;;;;;7.78;5.40;;;14.70;63.60;;;;;;4994209;28;20098;-63
2022/03/31 00:59:11;;;;;;;8.73;5.78;;;14.60;63.30;;;;;;4993874;28;20467;-62
2022/03/31 01:01:39;;;;;;;6.57;5.18;;;14.60;63.20;;;;;;4994074;28;20092;-62
2022/03/31 01:04:06;;;;;;;6.85;4.95;;;14.60;63.10;;;;;;4976515;28;20026;-63
2022/03/31 01:06:32;;;;;;;8.45;5.40;;;14.50;62.90;;;;;;4993705;28;20365;-63
2022/03/31 01:08:59;;;;;;;5.65;5.10;;;14.50;62.50;;;;;;4994379;28;20141;-63
2022/03/31 01:11:24;;;;;;;6.50;4.40;;;14.50;62.10;;;;;;4993959;28;20023;-61
2022/03/31 01:13:50;;;;;;;6.13;5.30;;;14.40;61.90;;;;;;4993713;28;20036;-63
2022/03/31 01:16:16;;;;;;;6.18;4.15;;;14.40;61.80;;;;;;4993778;28;20487;-62
2022/03/31 01:18:41;;;;;;;4.72;4.25;;;14.40;62.20;;;;;;4993584;28;20545;-62
2022/03/31 01:21:09;;;;;;;6.40;4.57;;;14.30;62.50;;;;;;4993863;28;20471;-61
2022/03/31 01:23:35;;;;;;;8.98;4.82;;;14.40;62.90;;;;;;4993792;28;20396;-62
2022/03/31 01:26:01;;;;;;;4.82;4.05;;;14.30;63.10;;;;;;4993839;28;20070;-63
2022/03/31 01:28:27;;;;;;;8.85;3.90;;;14.40;63.50;;;;;;4993187;28;20050;-63
2022/03/31 01:30:52;;;;;;;5.13;3.67;;;14.30;64.00;;;;;;4993880;28;20035;-63
2022/03/31 01:33:18;;;;;;;6.55;3.42;;;14.40;64.60;;;;;;4993571;28;20022;-60
2022/03/31 01:35:44;;;;;;;4.65;3.17;;;14.30;65.20;;;;;;4993878;28;20486;-62
2022/03/31 01:38:09;;;;;;;5.15;3.35;;;14.30;65.30;;;;;;4993768;28;20157;-62
2022/03/31 01:40:35;;;;;;;6.35;3.60;;;14.30;65.20;;;;;;4993606;28;20033;-62
2022/03/31 01:43:02;;;;;;;6.07;3.42;;;14.20;65.50;;;;;;4993448;28;20046;-62
2022/03/31 01:45:27;;;;;;;6.75;2.97;;;14.20;65.60;;;;;;4993394;28;20157;-60
2022/03/31 01:47:54;;;;;;;8.07;3.38;;;14.00;65.60;;;;;;4993641;28;20046;-61
2022/03/31 01:50:19;;;;;;;5.88;3.75;;;14.00;65.50;;;;;;4993449;28;20116;-63
2022/03/31 01:52:45;;;;;;;7.78;3.13;;;14.00;65.50;;;;;;4997176;28;20030;-62
2022/03/31 01:55:11;;;;;;;5.53;3.42;;;13.90;65.50;;;;;;4997404;28;20022;-60
2022/03/31 01:57:37;;;;;;;4.18;2.92;;;13.90;65.40;;;;;;4997302;28;20023;-62
2022/03/31 02:00:06;;;;;;;4.57;3.05;;;13.50;65.90;;;;;;4997494;28;20041;-62
2022/03/31 02:02:32;;;;;;;6.70;3.22;;;13.60;66.20;;;;;;4997201;28;20034;-62
2022/03/31 02:04:57;;;;;;;4.85;3.53;;;13.60;66.00;;;;;;4997313;28;20022;-62
2022/03/31 02:07:23;;;;;;;4.05;2.70;;;13.70;65.80;;;;;;4997217;28;20030;-61
2022/03/31 02:09:49;;;;;;;4.53;3.45;;;13.60;65.70;;;;;;4997067;28;20480;-63
2022/03/31 02:12:14;;;;;;;5.35;2.78;;;13.60;65.60;;;;;;4996931;28;20396;-62
2022/03/31 02:14:41;;;;;;;5.45;2.85;;;13.50;65.70;;;;;;4996910;28;20030;-61
2022/03/31 02:17:11;;;;;;;4.57;2.65;;;13.50;66.30;;;;;;4997241;28;20535;-62
2022/03/31 02:19:37;;;;;;;6.15;3.13;;;13.40;66.00;;;;;;4996773;28;20072;-63
2022/03/31 02:22:04;;;;;;;5.28;2.95;;;13.20;66.20;;;;;;4997280;28;20084;-61
2022/03/31 02:24:30;;;;;;;4.13;2.50;;;13.20;66.70;;;;;;4996795;28;20034;-62
2022/03/31 02:26:56;;;;;;;3.17;2.40;;;13.10;66.40;;;;;;4979370;28;20022;-63
2022/03/31 02:29:21;;;;;;;5.15;2.58;;;13.10;66.80;;;;;;4996545;28;20053;-62
2022/03/31 02:31:47;;;;;;;3.67;2.15;;;13.30;66.40;;;;;;4996809;28;20019;-62
2022/03/31 02:34:16;;;;;;;5.75;1.92;;;13.30;66.20;;;;;;4996715;28;20507;-62
2022/03/31 02:36:43;;;;;;;2.67;1.35;;;13.10;65.60;;;;;;4996678;28;20054;-63
2022/03/31 02:39:09;;;;;;;4.22;1.40;;;13.10;65.50;;;;;;4996693;28;20084;-62
2022/03/31 02:41:36;;;;;;;2.50;1.48;;;13.10;65.10;;;;;;4996433;28;20096;-62
2022/03/31 02:44:03;;;;;;;2.63;1.88;;;13.10;64.80;;;;;;4996562;28;20108;-62
2022/03/31 02:46:29;;;;;;;3.20;1.30;;;13.20;64.90;;;;;;4995709;28;20030;-62
2022/03/31 02:48:55;;;;;;;2.40;1.13;;;13.00;65.30;;;;;;4990737;28;20104;-62
2022/03/31 02:51:25;;;;;;;2.47;1.25;;;13.00;65.60;;;;;;4995082;28;20050;-62
2022/03/31 02:56:35;;;;;;;4.15;1.00;;;12.80;65.70;;;;;;4996055;28;20041;-63
2022/03/31 02:59:00;;;;;;;1.05;0.68;;;12.80;65.80;;;;;;4996024;28;20042;-62
2022/03/31 03:01:29;;;;;;;1.52;0.70;;;12.70;65.70;;;;;;4995902;28;20093;-61
2022/03/31 03:03:57;;;;;;;1.38;1.08;;;12.60;66.20;;;;;;4995774;28;20081;-62
2022/03/31 03:06:23;;;;;;;1.85;1.10;;;12.60;66.60;;;;;;4996312;28;20030;-62
2022/03/31 03:08:49;;;;;;;1.75;0.90;;;12.60;66.30;;;;;;4978213;28;20038;-62
2022/03/31 03:11:17;;;;;;;1.50;1.02;;;12.60;66.90;;;;;;4996095;28;20388;-62
2022/03/31 03:13:44;;;;;;;1.92;1.10;;;12.50;66.90;;;;;;4995947;28;20441;-62
2022/03/31 03:16:11;;;;;;;1.75;0.93;;;12.40;67.20;;;;;;4996169;28;20022;-62
2022/03/31 03:18:37;;;;;;;1.08;0.50;;;12.40;67.20;;;;;;4995829;28;20023;-62
2022/03/31 03:21:04;;;;;;;1.95;0.60;;;12.50;67.50;;;;;;4995848;28;20110;-62
2022/03/31 03:23:31;;;;;;;0.93;0.68;;;12.30;67.60;;;;;;4995413;28;20068;-63
2022/03/31 03:25:57;;;;;;;1.00;0.60;;;12.30;67.90;;;;;;4995822;28;20029;-62
2022/03/31 03:28:22;;;;;;;0.40;0.30;;;12.40;67.60;;;;;;4995552;28;20030;-62
2022/03/31 03:30:49;;;;;;;21.90;2.85;;;12.30;67.40;;;;;;4995563;28;20104;-63
2022/03/31 03:33:14;;;;;;;1.00;0.55;;;12.20;68.30;;;;;;4995727;28;20026;-62
2022/03/31 03:35:40;;;;;;;0.90;0.52;;;12.70;66.30;;;;;;4995624;28;20014;-63
2022/03/31 03:38:07;;;;;;;0.63;0.40;;;12.90;64.30;;;;;;4995527;28;20029;-63
2022/03/31 03:40:33;;;;;;;0.60;0.47;;;13.00;63.10;;;;;;4995294;28;20050;-63
2022/03/31 03:42:59;;;;;;;0.43;0.30;;;13.10;62.60;;;;;;4995551;28;20034;-62
2022/03/31 03:45:24;;;;;;;0.80;0.50;;;13.10;62.40;;;;;;4995304;28;20490;-62
2022/03/31 03:47:50;;;;;;;0.50;0.25;;;13.10;62.50;;;;;;4995408;28;20027;-63
2022/03/31 03:50:16;;;;;;;0.30;0.10;;;13.10;62.30;;;;;;4995168;28;20074;-62
2022/03/31 03:52:42;;;;;;;0.60;0.20;;;13.00;62.20;;;;;;4995057;28;20105;-62
2022/03/31 03:55:08;;;;;;;0.45;0.20;;;13.10;62.10;;;;;;4995447;28;20038;-63
2022/03/31 03:57:34;;;;;;;0.55;0.20;;;13.10;62.10;;;;;;4995005;28;20030;-62
2022/03/31 03:59:59;;;;;;;1.15;0.30;;;13.00;62.10;;;;;;4995358;28;20399;-63
2022/03/31 04:02:26;;;;;;;0.60;0.30;;;13.00;62.20;;;;;;4995043;28;20034;-62
2022/03/31 04:04:52;;;;;;;0.70;0.40;;;13.00;62.00;;;;;;4995248;28;20031;-63
2022/03/31 04:07:18;;;;;;;0.50;0.38;;;13.00;62.20;;;;;;4994610;28;20029;-62
2022/03/31 04:09:43;;;;;;;0.82;0.20;;;12.90;62.30;;;;;;4994874;28;20392;-63
2022/03/31 04:12:09;;;;;;;1.05;0.57;;;13.00;62.30;;;;;;4994939;28;20053;-63
2022/03/31 04:14:35;;;;;;;0.70;0.30;;;12.90;62.40;;;;;;4993924;28;20029;-62
2022/03/31 04:17:02;;;;;;;0.80;0.40;;;12.90;62.40;;;;;;4994666;28;20026;-62
2022/03/31 04:19:28;;;;;;;0.93;0.30;;;12.80;62.40;;;;;;4994751;28;20116;-62
2022/03/31 04:21:53;;;;;;;0.80;0.70;;;12.80;62.50;;;;;;4994817;28;20076;-63
2022/03/31 04:24:19;;;;;;;0.90;0.60;;;12.80;62.50;;;;;;4994703;28;20030;-63
2022/03/31 04:26:45;;;;;;;0.70;0.70;;;12.80;62.70;;;;;;4994466;28;20022;-63
2022/03/31 04:29:11;;;;;;;1.25;0.80;;;12.70;63.00;;;;;;4994745;28;20122;-62
2022/03/31 04:31:40;;;;;;;1.58;0.80;;;12.70;63.80;;;;;;4994502;28;20019;-63
2022/03/31 04:34:08;;;;;;;1.25;0.80;;;12.60;63.70;;;;;;4994774;28;20157;-63
2022/03/31 04:36:34;;;;;;;0.70;0.60;;;12.60;63.10;;;;;;4993883;28;20027;-63
2022/03/31 04:39:00;;;;;;;0.80;0.80;;;12.60;63.40;;;;;;4994498;28;20093;-61
2022/03/31 04:41:26;;;;;;;1.00;0.90;;;12.70;63.40;;;;;;4994442;28;20534;-60
2022/03/31 04:43:52;;;;;;;1.20;1.10;;;12.60;63.50;;;;;;4990293;28;20069;-60
2022/03/31 04:46:18;;;;;;;1.70;1.30;;;12.60;63.20;;;;;;4981842;28;20027;-61
2022/03/31 04:48:44;;;;;;;0.95;0.70;;;12.60;63.40;;;;;;4993797;28;20057;-62
2022/03/31 04:51:10;;;;;;;1.30;1.20;;;12.60;63.70;;;;;;4980268;28;20069;-62
2022/03/31 04:53:36;;;;;;;0.93;0.80;;;12.50;63.50;;;;;;4974672;28;20051;-63
2022/03/31 04:56:01;;;;;;;1.52;1.17;;;12.50;63.60;;;;;;4974844;28;20428;-59
2022/03/31 04:58:28;;;;;;;1.15;1.05;;;12.50;63.70;;;;;;4974602;28;20062;-59
2022/03/31 05:00:53;;;;;;;1.20;1.10;;;12.40;63.70;;;;;;4988204;28;20376;-59
2022/03/31 05:03:19;;;;;;;2.28;1.50;;;12.40;63.80;;;;;;4992350;28;20487;-61
2022/03/31 05:05:45;;;;;;;1.48;1.38;;;12.30;63.60;;;;;;4981967;28;20014;-60
2022/03/31 05:08:11;;;;;;;1.67;1.40;;;12.30;63.70;;;;;;4992820;28;20475;-61
2022/03/31 05:10:37;;;;;;;2.72;1.30;;;12.40;63.80;;;;;;4994298;28;20030;-61
2022/03/31 05:13:02;;;;;;;1.52;1.20;;;12.40;63.70;;;;;;4991490;28;20033;-59
2022/03/31 05:15:28;;;;;;;1.67;1.30;;;12.30;63.60;;;;;;4982377;28;20125;-61
2022/03/31 05:17:53;;;;;;;2.03;1.30;;;12.40;63.80;;;;;;4988738;28;20472;-60
2022/03/31 05:20:21;;;;;;;0.98;0.98;;;12.30;63.90;;;;;;4992204;28;20472;-62
2022/03/31 05:22:46;;;;;;;1.60;1.50;;;12.30;64.00;;;;;;4981188;28;20535;-62
2022/03/31 05:25:12;;;;;;;1.75;1.48;;;12.30;64.10;;;;;;4993122;28;20026;-60
2022/03/31 05:27:43;;;;;;;1.10;1.00;;;12.30;64.10;;;;;;4992872;28;20034;-60
2022/03/31 05:30:10;;;;;;;1.17;1.08;;;12.20;64.00;;;;;;4989669;28;20547;-59
2022/03/31 05:32:35;;;;;;;3.40;1.17;;;12.20;64.10;;;;;;4990899;28;20045;-61
2022/03/31 05:35:01;;;;;;;1.80;1.42;;;12.20;64.30;;;;;;4982042;28;20065;-61
2022/03/31 05:37:27;;;;;;;2.00;1.60;;;12.20;64.30;;;;;;4981638;28;20073;-62
2022/03/31 05:39:53;;;;;;;1.60;1.40;;;12.20;64.60;;;;;;4972547;28;20450;-58
2022/03/31 05:42:18;;;;;;;1.40;1.30;;;12.20;64.60;;;;;;4987385;28;20026;-62
2022/03/31 05:44:44;;;;;;;1.30;1.20;;;12.20;64.60;;;;;;4988957;28;20088;-63
2022/03/31 05:47:09;;;;;;;1.55;1.08;;;12.20;64.60;;;;;;4990345;28;20101;-63
2022/03/31 05:49:35;;;;;;;1.33;0.90;;;12.10;64.70;;;;;;4985004;28;20038;-63
2022/03/31 05:52:01;;;;;;;1.23;1.13;;;12.10;64.80;;;;;;4990247;28;20097;-63
2022/03/31 05:54:26;;;;;;;1.77;1.10;;;11.90;66.90;;;;;;4989794;28;20038;-61
2022/03/31 05:56:52;;;;;;;1.60;1.50;;;11.60;67.90;;;;;;4992085;28;20022;-62
2022/03/31 05:59:17;;;;;;;1.92;1.15;;;11.50;68.40;;;;;;4973320;28;20085;-61
2022/03/31 06:01:43;;;;;;;1.60;1.30;;;11.10;69.30;;;;;;4988886;28;20125;-62
2022/03/31 06:04:09;;;;;;;1.50;1.40;;;11.30;69.70;;;;;;4982519;28;20396;-62
2022/03/31 06:06:34;;;;;;;2.63;1.40;;;11.20;69.60;;;;;;4989310;28;20062;-61
2022/03/31 06:09:00;;;;;;;1.63;1.50;;;11.40;69.90;;;;;;4996193;28;20064;-62
2022/03/31 06:11:25;;;;;;;2.25;1.30;;;11.50;69.80;;;;;;4990616;28;20030;-62
2022/03/31 06:13:51;;;;;;;1.67;1.25;;;11.10;69.60;;;;;;4991684;28;20034;-62
2022/03/31 06:16:16;;;;;;;1.40;1.30;;;11.30;69.40;;;;;;4992195;28;20018;-62
2022/03/31 06:18:42;;;;;;;1.42;1.33;;;11.00;69.50;;;;;;4991167;28;20503;-62
2022/03/31 06:21:08;;;;;;;1.70;1.45;;;11.00;69.60;;;;;;4992338;28;20440;-62
2022/03/31 06:23:34;;;;;;;1.88;1.73;;;11.10;69.80;;;;;;4988916;28;20034;-63
2022/03/31 06:26:00;;;;;;;2.03;1.80;;;11.10;69.60;;;;;;4966022;28;20023;-62
2022/03/31 06:28:28;;;;;;;2.28;1.42;;;11.10;70.30;;;;;;4985199;28;20030;-61
2022/03/31 06:30:54;;;;;;;1.38;1.27;;;11.20;70.00;;;;;;4992792;28;20042;-63
2022/03/31 06:33:20;;;;;;;1.65;1.40;;;11.20;69.80;;;;;;4992673;28;20448;-62
2022/03/31 06:35:46;;;;;;;2.22;1.80;;;11.30;70.50;;;;;;4991995;28;20498;-62
2022/03/31 06:38:12;;;;;;;3.33;1.50;;;11.30;70.80;;;;;;4993490;28;20050;-63
2022/03/31 06:40:40;;;;;;;1.42;1.33;;;11.40;70.50;;;;;;4996014;28;20030;-63
2022/03/31 06:43:06;;;;;;;3.00;1.90;;;11.40;70.00;;;;;;4996494;28;20029;-63
2022/03/31 06:45:32;;;;;;;1.52;1.42;;;11.40;69.80;;;;;;4996060;28;20026;-61
2022/03/31 06:47:59;;;;;;;1.67;1.58;;;11.40;69.40;;;;;;4995922;28;20030;-62
2022/03/31 06:50:25;;;;;;;3.47;1.65;;;11.50;69.90;;;;;;4995751;28;20034;-63
2022/03/31 06:52:50;;;;;;;1.88;1.48;;;11.50;69.90;;;;;;4996112;28;20084;-59
2022/03/31 06:55:16;;;;;;;3.67;1.70;;;11.60;70.70;;;;;;4995490;28;20471;-62
2022/03/31 06:57:42;;;;;;;4.10;1.73;;;11.60;70.50;;;;;;4995930;28;20042;-61
2022/03/31 07:00:08;;;;;;;1.75;1.52;;;11.70;70.40;;;;;;4996261;28;20034;-62
2022/03/31 07:02:34;;;;;;;2.75;1.88;;;11.70;70.30;;;;;;4994982;28;20065;-62
2022/03/31 07:04:59;;;;;;;1.35;1.25;;;11.70;70.70;;;;;;4994711;28;20136;-63
2022/03/31 07:07:25;;;;;;;3.83;1.40;;;11.70;70.40;;;;;;4979480;28;20034;-63
2022/03/31 07:09:51;;;;;;;2.28;1.25;;;11.70;70.30;;;;;;4980167;28;20035;-60
2022/03/31 07:12:17;;;;;;;1.80;1.50;;;11.80;70.60;;;;;;4993160;28;20030;-63
2022/03/31 07:14:44;;;;;;;1.65;1.10;;;11.70;69.60;;;;;;4990862;28;20102;-60
2022/03/31 07:17:10;;;;;;;3.97;1.20;;;11.70;69.60;;;;;;4995363;28;20037;-62
2022/03/31 07:19:35;;;;;;;1.20;1.10;;;11.60;69.50;;;;;;4995392;28;20042;-62
2022/03/31 07:22:01;;;;;;;1.50;1.00;;;11.70;69.50;;;;;;4995431;28;20069;-63
2022/03/31 07:24:26;;;;;;;1.40;1.27;;;11.70;69.20;;;;;;4988852;28;20431;-61
2022/03/31 07:26:52;;;;;;;6.50;1.50;;;11.70;69.30;;;;;;4994843;28;20423;-59
2022/03/31 07:29:18;;;;;;;1.95;1.50;;;11.70;68.90;;;;;;4986520;28;20502;-60
2022/03/31 07:31:44;;;;;;;4.25;1.10;;;11.70;69.30;;;;;;4992911;28;20033;-61
2022/03/31 07:34:10;;;;;;;2.72;1.20;;;11.80;69.30;;;;;;4994397;28;20036;-62
2022/03/31 07:36:35;;;;;;;2.22;1.33;;;11.70;68.80;;;;;;4994847;28;20030;-62
2022/03/31 07:39:01;;;;;;;1.42;1.10;;;11.70;68.90;;;;;;4993475;28;20129;-59
2022/03/31 07:41:26;;;;;;;1.95;1.13;;;11.60;68.80;;;;;;4991860;28;20395;-59
2022/03/31 07:43:52;;;;;;;2.65;1.00;;;11.60;69.30;;;;;;4995049;28;20031;-62
2022/03/31 07:46:18;;;;;;;1.73;0.73;;;11.60;68.40;;;;;;4995031;28;20547;-62
2022/03/31 07:48:43;;;;;;;3.45;0.88;;;11.60;68.60;;;;;;4993368;28;20084;-62
2022/03/31 07:51:09;;;;;;;1.70;0.70;;;11.50;68.10;;;;;;4994292;28;20049;-61
2022/03/31 07:53:35;;;;;;;1.95;1.00;;;11.30;68.50;;;;;;4992510;28;20049;-62
2022/03/31 07:56:05;;;;;;;2.35;0.88;;;11.30;68.30;;;;;;4994042;28;20105;-63
2022/03/31 07:58:31;;;;;;;1.27;0.55;;;11.40;68.60;;;;;;4992006;28;20026;-63
2022/03/31 08:00:57;;;;;;;1.05;0.38;;;11.50;68.20;;;;;;4992517;28;20389;-60
2022/03/31 08:03:23;;;;;;;2.20;0.90;;;11.50;68.10;;;;;;4992644;28;20535;-61
2022/03/31 08:05:49;;;;;;;1.92;0.80;;;11.50;67.90;;;;;;4992750;28;20057;-61
2022/03/31 08:08:15;;;;;;;1.58;0.80;;;11.50;67.60;;;;;;4993774;28;20109;-60
2022/03/31 08:10:41;;;;;;;2.13;0.63;;;11.40;67.30;;;;;;4994731;28;20113;-61
2022/03/31 08:13:08;;;;;;;1.73;0.85;;;11.40;68.00;;;;;;4993426;28;20337;-61
2022/03/31 08:15:34;;;;;;;2.25;0.65;;;11.50;68.80;;;;;;4993166;28;20033;-58
2022/03/31 08:18:00;;;;;;;1.60;0.98;;;11.50;68.00;;;;;;4994068;28;20037;-60
2022/03/31 08:20:26;;;;;;;1.35;0.85;;;11.50;68.50;;;;;;4994332;28;20468;-60
2022/03/31 08:22:52;;;;;;;1.42;0.63;;;11.50;68.40;;;;;;4994102;28;20037;-61
2022/03/31 08:25:18;;;;;;;1.58;1.27;;;11.50;68.10;;;;;;4993015;28;20033;-59
2022/03/31 08:27:45;;;;;;;3.50;1.10;;;11.60;68.00;;;;;;4993998;28;20061;-62
2022/03/31 08:30:13;;;;;;;1.58;1.20;;;11.40;67.50;;;;;;4993798;28;20054;-62
2022/03/31 08:32:39;;;;;;;1.92;1.50;;;11.40;68.20;;;;;;4993993;28;20050;-62
2022/03/31 08:35:07;;;;;;;1.33;1.20;;;11.50;68.00;;;;;;4994141;28;20045;-62
2022/03/31 08:37:33;;;;;;;2.53;1.08;;;11.40;68.40;;;;;;4993858;28;20161;-62
2022/03/31 08:39:59;;;;;;;1.88;1.30;;;11.50;68.00;;;;;;4976641;28;20038;-62
2022/03/31 08:42:25;;;;;;;2.47;1.38;;;11.50;68.20;;;;;;4993409;28;20069;-61
2022/03/31 08:44:51;;;;;;;2.47;1.17;;;11.70;68.30;;;;;;4994162;28;20109;-62
2022/03/31 08:47:18;;;;;;;2.95;1.40;;;11.80;67.70;;;;;;4993736;28;20042;-62
2022/03/31 08:49:46;;;;;;;2.00;1.10;;;11.90;67.60;;;;;;4993726;28;20495;-62
2022/03/31 08:52:12;;;;;;;2.00;1.35;;;11.90;67.60;;;;;;4993690;28;20026;-62
2022/03/31 08:54:39;;;;;;;1.80;1.33;;;11.80;67.40;;;;;;4993652;28;20387;-63
2022/03/31 08:57:05;;;;;;;1.25;1.13;;;11.80;67.80;;;;;;4993531;28;20026;-62
2022/03/31 08:59:31;;;;;;;1.25;0.88;;;11.90;67.30;;;;;;4993721;28;20376;-62
2022/03/31 09:01:56;;;;;;;1.77;0.85;;;12.00;67.00;;;;;;4993323;28;20019;-62
2022/03/31 09:04:23;;;;;;;2.22;1.20;;;12.00;67.30;;;;;;4993382;28;20049;-62
2022/03/31 09:07:01;;;;;;;1.73;1.13;;;12.00;66.50;;;;;;4993672;28;20022;-62
2022/03/31 09:09:27;;;;;;;1.17;1.05;;;12.00;67.20;;;;;;4993376;28;20035;-62
2022/03/31 09:11:53;;;;;;;1.80;0.88;;;11.90;66.40;;;;;;4993325;28;20317;-60
2022/03/31 09:14:28;;;;;;;1.42;0.95;;;11.90;66.90;;;;;;4993223;28;20026;-59
2022/03/31 09:16:54;;;;;;;2.85;1.05;;;11.90;66.20;;;;;;4993761;28;20028;-62
2022/03/31 09:19:20;;;;;;;2.08;0.88;;;12.00;65.80;;;;;;4992773;28;20042;-61
2022/03/31 09:21:54;;;;;;;2.58;0.77;;;12.00;66.10;;;;;;4993522;28;20065;-61
2022/03/31 09:24:21;;;;;;;1.67;0.80;;;11.90;66.10;;;;;;4992541;28;20068;-62
2022/03/31 09:26:48;;;;;;;1.33;0.57;;;12.10;66.40;;;;;;4993135;28;20022;-63
2022/03/31 09:29:15;;;;;;;2.72;1.08;;;12.20;67.30;;;;;;4991509;28;20097;-62
2022/03/31 09:31:41;;;;;;;1.55;1.00;;;12.30;65.80;;;;;;4985662;28;20035;-62
2022/03/31 09:34:08;;;;;;;3.53;1.20;;;12.00;65.80;;;;;;4975046;28;20029;-62
2022/03/31 09:36:36;;;;;;;3.60;1.42;;;11.80;66.00;;;;;;4992407;28;20037;-63
2022/03/31 09:39:09;;;;;;;2.53;1.23;;;11.90;65.60;;;;;;4993023;28;20026;-62
2022/03/31 09:41:40;;;;;;;3.25;1.10;;;11.80;65.50;;;;;;4993398;28;20034;-62
2022/03/31 09:44:17;;;;;;;1.80;1.33;;;12.00;65.40;;;;;;4993050;28;20033;-58
2022/03/31 09:46:44;;;;;;;1.75;1.30;;;11.90;65.30;;;;;;4987460;28;20061;-63
2022/03/31 09:49:19;;;;;;;4.18;1.98;;;12.00;65.10;;;;;;4992692;28;20401;-60
2022/03/31 09:51:48;;;;;;;1.83;1.23;;;12.10;64.20;;;;;;4991768;28;20018;-60
2022/03/31 09:54:14;;;;;;;5.53;2.00;;;12.20;64.70;;;;;;4993294;28;20026;-62
2022/03/31 09:56:40;;;;;;;3.05;1.90;;;12.20;64.80;;;;;;4992988;28;20023;-63
2022/03/31 09:59:08;;;;;;;3.92;1.90;;;12.20;64.70;;;;;;4990005;28;20043;-61
2022/03/31 10:01:36;;;;;;;12.18;2.20;;;12.30;64.20;;;;;;4990506;28;20553;-62
2022/03/31 10:04:02;;;;;;;3.67;2.50;;;12.40;63.70;;;;;;4990458;28;20022;-62
2022/03/31 10:06:28;;;;;;;5.05;1.90;;;12.30;63.90;;;;;;4981557;28;20037;-60
2022/03/31 10:08:57;;;;;;;3.97;2.30;;;12.30;64.60;;;;;;4992603;28;20046;-62
2022/03/31 10:11:24;;;;;;;3.65;2.97;;;12.40;64.10;;;;;;4991721;28;20105;-60
2022/03/31 10:13:52;;;;;;;4.38;3.70;;;12.50;63.70;;;;;;4994246;28;20088;-62
2022/03/31 10:16:24;;;;;;;3.90;3.13;;;12.40;63.00;;;;;;4996064;28;20380;-62
2022/03/31 10:18:49;;;;;;;5.97;3.78;;;12.40;63.60;;;;;;4994875;28;20030;-62
2022/03/31 10:21:26;;;;;;;4.90;3.63;;;12.40;63.70;;;;;;4996429;28;20061;-62
2022/03/31 10:26:36;;;;;;;4.95;3.13;;;12.30;63.60;;;;;;4996522;28;20081;-60
2022/03/31 10:29:14;;;;;;;4.95;3.00;;;12.40;64.40;;;;;;4996344;28;20038;-60
2022/03/31 10:31:46;;;;;;;4.28;2.90;;;12.40;63.00;;;;;;4996472;28;20034;-60
2022/03/31 10:34:14;;;;;;;5.18;2.38;;;12.50;62.70;;;;;;4996652;28;20026;-62
2022/03/31 10:36:47;;;;;;;4.38;2.25;;;12.50;62.60;;;;;;4996594;28;20098;-60
2022/03/31 10:39:22;;;;;;;3.33;1.77;;;12.40;62.00;;;;;;4996021;28;20033;-60
2022/03/31 10:42:01;;;;;;;2.60;1.70;;;12.50;63.40;;;;;;4996382;28;20053;-61
2022/03/31 10:44:27;;;;;;;2.95;1.52;;;12.60;62.10;;;;;;4996345;28;20046;-62
2022/03/31 10:47:07;;;;;;;2.03;1.20;;;12.60;61.40;;;;;;4996331;28;20069;-60
2022/03/31 10:49:34;;;;;;;2.13;1.13;;;12.60;60.90;;;;;;4996252;28;20034;-60
2022/03/31 10:52:12;;;;;;;2.78;1.20;;;12.50;60.80;;;;;;4996225;28;20104;-62
2022/03/31 10:54:38;;;;;;;4.07;1.50;;;12.50;62.10;;;;;;4996228;28;20026;-62
2022/03/31 10:57:17;;;;;;;3.63;1.35;;;12.60;62.10;;;;;;4996180;28;20029;-62
2022/03/31 10:59:45;;;;;;;4.35;1.90;;;12.50;61.40;;;;;;4995968;28;20030;-60
2022/03/31 11:02:21;;;;;;;3.28;1.63;;;12.60;61.40;;;;;;4996231;28;20018;-62
2022/03/31 11:04:54;;;;;;;5.32;1.80;;;12.50;61.90;;;;;;4996094;28;20038;-60
2022/03/31 11:07:24;;;;;;;3.95;1.88;;;12.60;62.20;;;;;;4995637;28;20422;-61
2022/03/31 11:10:08;;;;;;;5.05;1.95;;;12.70;62.60;;;;;;4995869;28;20035;-62
2022/03/31 11:12:36;;;;;;;3.85;2.17;;;12.70;61.70;;;;;;4995674;28;20390;-62
2022/03/31 11:15:12;;;;;;;3.28;2.25;;;12.60;61.20;;;;;;4995651;28;20032;-62
2022/03/31 11:17:40;;;;;;;2.67;2.30;;;12.70;61.60;;;;;;4995844;28;20102;-62
2022/03/31 11:20:17;;;;;;;2.80;2.22;;;12.80;61.60;;;;;;4995705;28;20026;-62
2022/03/31 11:22:48;;;;;;;2.72;2.40;;;12.80;62.60;;;;;;4995470;28;20022;-62
2022/03/31 11:25:15;;;;;;;2.35;2.25;;;12.70;60.90;;;;;;4994988;28;20025;-62
2022/03/31 11:27:41;;;;;;;2.55;2.20;;;12.80;61.00;;;;;;4995496;28;20023;-62
2022/03/31 11:30:11;;;;;;;3.05;2.60;;;12.80;61.10;;;;;;4995694;28;20050;-62
2022/03/31 11:32:38;;;;;;;2.00;1.58;;;12.80;60.90;;;;;;4995581;28;20046;-60
2022/03/31 11:35:09;;;;;;;2.50;1.65;;;12.80;60.20;;;;;;4995524;28;20019;-62
2022/03/31 11:37:35;;;;;;;2.22;1.40;;;12.80;60.30;;;;;;4994945;28;20379;-62
2022/03/31 11:40:01;;;;;;;3.13;1.40;;;12.70;60.20;;;;;;4995184;28;20543;-62
2022/03/31 11:42:26;;;;;;;1.65;1.33;;;12.50;60.50;;;;;;4995015;28;20014;-62
2022/03/31 11:44:52;;;;;;;4.13;1.13;;;12.50;60.60;;;;;;4995326;28;20058;-62
2022/03/31 11:47:20;;;;;;;4.03;1.13;;;12.60;60.70;;;;;;4994998;28;20033;-62
2022/03/31 11:49:57;;;;;;;1.10;0.52;;;12.70;60.20;;;;;;4995150;28;20038;-62
2022/03/31 11:52:31;;;;;;;1.10;0.57;;;12.70;59.90;;;;;;4994865;28;20015;-61
2022/03/31 11:54:59;;;;;;;1.60;0.70;;;12.80;60.10;;;;;;4990788;28;20034;-62
2022/03/31 11:57:27;;;;;;;0.70;0.50;;;12.90;59.20;;;;;;4976272;28;20061;-62
2022/03/31 11:59:52;;;;;;;1.00;0.80;;;12.90;60.20;;;;;;4995006;28;20456;-62
2022/03/31 12:02:18;;;;;;;1.25;0.77;;;13.00;59.20;;;;;;4994975;28;20026;-61
2022/03/31 12:04:45;;;;;;;1.20;0.68;;;13.00;58.80;;;;;;4988698;28;20026;-60
2022/03/31 12:07:11;;;;;;;2.90;0.60;;;13.00;59.10;;;;;;4994033;28;20383;-60
2022/03/31 12:09:41;;;;;;;4.15;1.10;;;13.00;59.40;;;;;;4994026;28;20483;-60
2022/03/31 12:12:12;;;;;;;2.40;0.98;;;13.00;59.50;;;;;;4994912;28;20018;-61
2022/03/31 12:14:38;;;;;;;1.40;0.90;;;12.90;59.80;;;;;;4993892;28;20476;-59
2022/03/31 12:17:04;;;;;;;1.50;0.90;;;12.80;59.90;;;;;;4994534;28;20054;-62
2022/03/31 12:19:42;;;;;;;2.47;0.80;;;12.90;60.10;;;;;;4994549;28;20043;-62
2022/03/31 12:22:09;;;;;;;1.35;0.68;;;12.90;60.60;;;;;;4994646;28;20026;-62
2022/03/31 12:24:49;;;;;;;1.13;0.60;;;12.90;60.00;;;;;;4994686;28;20077;-62
2022/03/31 12:27:16;;;;;;;1.15;0.63;;;12.90;60.20;;;;;;4994492;28;20033;-61
2022/03/31 12:29:43;;;;;;;2.17;1.10;;;12.80;60.60;;;;;;4985197;28;20058;-61
2022/03/31 12:32:13;;;;;;;2.45;1.02;;;12.80;61.00;;;;;;4985245;28;20077;-62
2022/03/31 12:34:52;;;;;;;1.52;1.00;;;12.90;61.40;;;;;;4991491;28;20026;-62
2022/03/31 12:37:27;;;;;;;1.77;1.20;;;13.00;60.90;;;;;;4989081;28;20019;-61
2022/03/31 12:39:53;;;;;;;3.15;1.35;;;13.00;59.90;;;;;;4984398;28;20117;-62
2022/03/31 12:42:18;;;;;;;3.80;1.10;;;13.00;61.10;;;;;;4989459;28;20451;-60
2022/03/31 12:44:44;;;;;;;2.05;1.48;;;13.20;62.20;;;;;;4991292;28;20081;-62
2022/03/31 12:47:11;;;;;;;3.70;1.77;;;13.20;60.20;;;;;;4993849;28;20037;-60
2022/03/31 12:49:40;;;;;;;2.08;1.70;;;13.20;59.70;;;;;;4990307;28;20117;-62